Posadas, Argentina

5:09 PM -03 en Marzo 23, 2017 (GMT -0300)
Aguavista Club de Campo | | Change Station

Alt 436 ft 27.31 °S, 55.98 °W | Updated 2 minutes ago

Muy nublado
Muy nublado
89.4 ° F
Sensación térmica 92 ° F
N
2.0
Viento Variable Viento desde Oeste
Gusts 4.0 mph

Hoy
Alta -- | Baja -- ° F
--% Posibilidad de precipitaciones
Ayer
Alta -- | Baja -- ° F
Precip. -- pul
Presión 29.89 pul
Visibilidad 6.2 Millas
Nubes Nubes dispersas 3000 ft
Muy nublado 8000 ft
Índice de calor 92 ° F
Punto de rocío 67 ° F
Humedad 47%
Precipitaciones 0.00 pul
Espesor de la nieve No disponible.
6:49 AM 6:51 PM
Creciente menguante, 21% visible
METAR SGEN 232000Z 26003KT 9999 SCT030 BKN080 31/17 Q1012
Presión 29.89 pul
Visibilidad 6.2 Millas
Nubes Nubes dispersas 3000 ft
Muy nublado 8000 ft
Índice de calor 92 ° F
Punto de rocío 67 ° F
Humedad 47%
Precipitaciones 0.00 pul
Espesor de la nieve No disponible.
6:49 AM 6:51 PM
Creciente menguante, 21% visible
METAR SGEN 232000Z 26003KT 9999 SCT030 BKN080 31/17 Q1012

Get Severe Weather Alerts

Thanks for signing up!

Be on the lookout for a verification email in your inbox.

You'll start receiving the daily forecast at 8 AM.

×

10-Day Weather Forecast

Almanac

Astronomía

Mar. 23, 2017 Salida Puesta
Hora real
Crepúsculo civil
Crepúsculo náutico
Crepúsculo astronómico
Luna
Horas de luz
Horas de luz
Tomorrow will be .
, % of the Moon is Illuminated

Extremos de hoy

Máximos del país Bajas del país

Community

WunderPhotos

Upload Photos

1,962,540 ¡fotos cargadas!

WunderBlog® & News

Nearby

Calidad del aire

  Calidad del aire Índice AQ Contaminante
Not available.

Grosos de nieve

Estación Profundido Altura

Actividad de terremotos

Ciudad Distance Mag. Tiempo y dato
Magnitud mínima muestra es 2,5.

Actividad de terremotos

Ciudad Distance Mag. Tiempo y dato
Magnitud mínima muestra es 2,5.

Temperaturas de aguas costeras

Lugar Temperatura

Stations

Estaciones meteorológicas cercanas

Ubicación de la estación Temp. Vientos helados Punto de rocío Humedad Viento Precip. Alt Actualizado Tipo